Stormwatcher's Retreat Logo




                  Temp     Hi    Low   Out    Dew  Wind  Wind   Wind    Hi    Hi   Wind   Heat    THW   THSW                Rain  Solar   Solar Hi Solar   UV    UV    Hi     Heat    Cool    In     In    In     In     In   In Air          Wind  Wind    ISS   Arc.
  Date    Time     Out   Temp   Temp   Hum    Pt. Speed   Dir    Run Speed   Dir  Chill  Index  Index  Index   Bar    Rain  Rate   Rad.  Energy    Rad.  Index  Dose   UV     D-D     D-D    Temp   Hum    Dew   Heat    EMC Density     ET   Samp   Tx   Recept  Int.
------------------------------------------------------------------------------------------------------------------------------------------------------------------------------------------------------------------------------------------------------------------------
 3/17/19 12:10a   47.1   47.2   47.0    78   40.6   0.0    NE   0.00   1.0    NE   47.1   46.9   46.9   43.4  30.227  0.00  0.00     0     0.00      0     0.0  0.00   0.0   0.124   0.000   70.1    43   46.6   67.7   8.25  .0749    0.000   210    5    100.0   10 
 3/17/19 12:20a   47.4   47.4   47.2    79   41.2   0.0    NE   0.00   1.0    NE   47.4   47.2   47.2   43.7  30.225  0.00  0.00     0     0.00      0     0.0  0.00   0.0   0.122   0.000   70.1    43   46.6   67.7   8.25  .0749    0.000   210    5    100.0   10 
 3/17/19 12:30a   47.2   47.4   47.0    79   41.0   1.0    NE   0.17   2.0    NE   47.2   47.0   47.0   43.5  30.226  0.00  0.00     0     0.00      0     0.0  0.00   0.0   0.124   0.000   70.0    43   46.5   67.6   8.25  .0749    0.000   214    5    100.0   10 
 3/17/19 12:40a   46.9   47.2   46.9    79   40.7   1.0   NNE   0.17   3.0   NNE   46.9   46.7   46.7   43.2  30.230  0.00  0.00     0     0.00      0     0.0  0.00   0.0   0.126   0.000   70.0    43   46.5   67.6   8.25  .0749    0.000   210    5    100.0   10 
 3/17/19 12:50a   47.0   47.0   46.7    80   41.1   1.0   NNE   0.17   2.0   NNE   47.0   46.8   46.8   43.3  30.230  0.00  0.00     0     0.00      0     0.0  0.00   0.0   0.125   0.000   69.9    43   46.4   67.5   8.25  .0749    0.000   212    5    100.0   10 
 3/17/19  1:00a   46.5   47.0   46.5    80   40.7   0.0   NNE   0.00   2.0   NNE   46.5   46.3   46.3   42.8  30.225  0.00  0.00     0     0.00      0     0.0  0.00   0.0   0.128   0.000   69.8    43   46.3   67.5   8.25  .0749    0.001   212    5    100.0   10 
 3/17/19  1:10a   45.6   46.5   45.6    80   39.8   1.0   NNE   0.17   2.0   NNE   45.6   45.4   45.4   41.8  30.225  0.00  0.00     0     0.00      0     0.0  0.00   0.0   0.135   0.000   69.8    43   46.3   67.5   8.25  .0749    0.000   213    5    100.0   10 
 3/17/19  1:20a   45.5   45.6   45.5    80   39.7   0.0   NNE   0.00   1.0   NNE   45.5   45.3   45.3   41.7  30.226  0.00  0.00     0     0.00      0     0.0  0.00   0.0   0.135   0.000   69.7    43   46.2   67.4   8.25  .0749    0.000   211    5    100.0   10 
 3/17/19  1:30a   46.0   46.1   45.4    82   40.8   0.0   NNE   0.00   2.0   NNE   46.0   45.9   45.9   42.4  30.227  0.00  0.00     0     0.00      0     0.0  0.00   0.0   0.132   0.000   69.6    43   46.1   67.3   8.25  .0750    0.000   213    5    100.0   10 
 3/17/19  1:40a   45.8   46.1   45.8    81   40.3   1.0   NNE   0.17   2.0   NNE   45.8   45.6   45.6   42.1  30.223  0.00  0.00     0     0.00      0     0.0  0.00   0.0   0.133   0.000   69.6    43   46.1   67.3   8.25  .0750    0.000   212    5    100.0   10 
 3/17/19  1:50a   46.0   46.0   45.6    83   41.1   0.0   NNE   0.00   2.0   NNE   46.0   45.9   45.9   42.4  30.224  0.00  0.00     0     0.00      0     0.0  0.00   0.0   0.132   0.000   69.5    43   46.0   67.3   8.25  .0750    0.000   212    5    100.0   10 
 3/17/19  2:00a   46.0   46.2   46.0    82   40.8   1.0   NNE   0.17   2.0   NNE   46.0   45.9   45.9   42.4  30.226  0.00  0.00     0     0.00      0     0.0  0.00   0.0   0.132   0.000   69.4    43   45.9   67.2   8.25  .0750    0.001   212    5    100.0   10 
 3/17/19  2:10a   45.7   46.0   45.7    82   40.5   0.0   NNE   0.00   2.0   NNE   45.7   45.6   45.6   42.1  30.231  0.00  0.00     0     0.00      0     0.0  0.00   0.0   0.134   0.000   69.3    43   45.8   67.1   8.25  .0750    0.000   208    5    100.0   10 
 3/17/19  2:20a   45.1   45.7   45.1    82   39.9   1.0   NNE   0.17   3.0   NNE   45.1   44.9   44.9   41.3  30.228  0.00  0.00     0     0.00      0     0.0  0.00   0.0   0.138   0.000   69.3    43   45.8   67.1   8.25  .0750    0.000   211    5    100.0   10 
 3/17/19  2:30a   45.0   45.1   44.9    83   40.1   0.0   NNE   0.00   2.0   NNE   45.0   44.9   44.9   41.4  30.228  0.00  0.00     0     0.00      0     0.0  0.00   0.0   0.139   0.000   69.2    43   45.7   67.0   8.25  .0750    0.000   211    5    100.0   10 
 3/17/19  2:40a   45.4   45.4   45.0    84   40.8   1.0   NNE   0.17   2.0   NNE   45.4   45.3   45.3   41.8  30.232  0.00  0.00     0     0.00      0     0.0  0.00   0.0   0.136   0.000   69.1    42   45.0   66.9   8.07  .0751    0.000   213    5    100.0   10 
 3/17/19  2:50a   45.2   45.5   45.2    83   40.3   1.0   NNE   0.17   3.0   NNE   45.2   45.1   45.1   41.6  30.233  0.00  0.00     0     0.00      0     0.0  0.00   0.0   0.137   0.000   69.0    42   44.9   66.8   8.07  .0751    0.000   212    5    100.0   10 
 3/17/19  3:00a   44.8   45.2   44.8    83   40.0   1.0    NE   0.17   2.0    NE   44.8   44.7   44.7   41.1  30.233  0.00  0.00     0     0.00      0     0.0  0.00   0.0   0.140   0.000   69.0    42   44.9   66.8   8.07  .0751    0.000   213    5    100.0   10 
 3/17/19  3:10a   45.0   45.0   44.7    84   40.5   1.0    NE   0.17   2.0    NE   45.0   44.9   44.9   41.4  30.231  0.00  0.00     0     0.00      0     0.0  0.00   0.0   0.139   0.000   68.9    42   44.9   66.7   8.07  .0751    0.000   207    5    100.0   10 
 3/17/19  3:20a   45.9   45.9   45.0    84   41.3   1.0    NE   0.17   2.0    NE   45.9   45.9   45.9   42.4  30.226  0.00  0.00     0     0.00      0     0.0  0.00   0.0   0.133   0.000   68.8    42   44.8   66.6   8.07  .0751    0.000   211    5    100.0   10 
 3/17/19  3:30a   45.8   45.9   45.6    84   41.2   1.0    NE   0.17   2.0    NE   45.8   45.7   45.7   42.2  30.222  0.00  0.00     0     0.00      0     0.0  0.00   0.0   0.133   0.000   68.8    42   44.8   66.6   8.07  .0751    0.000   210    5    100.0   10 
 3/17/19  3:40a   45.8   45.8   45.6    84   41.2   1.0    NE   0.17   2.0    NE   45.8   45.7   45.7   42.2  30.219  0.00  0.00     0     0.00      0     0.0  0.00   0.0   0.133   0.000   68.7    42   44.7   66.5   8.08  .0751    0.000   212    5    100.0   10 
 3/17/19  3:50a   45.8   46.0   45.8    83   40.9   2.0    NE   0.33   8.0   ESE   45.8   45.7   45.7   42.2  30.215  0.00  0.00     0     0.00      0     0.0  0.00   0.0   0.133   0.000   68.6    42   44.6   66.4   8.08  .0751    0.000   213    5    100.0   10 
 3/17/19  4:00a   46.4   46.4   45.8    84   41.8   2.0     E   0.33   7.0     E   46.4   46.4   46.4   42.9  30.214  0.00  0.00     0     0.00      0     0.0  0.00   0.0   0.129   0.000   68.6    42   44.6   66.4   8.08  .0751    0.000   213    5    100.0   10 
 3/17/19  4:10a   46.5   46.7   46.4    82   41.3   2.0     E   0.33   4.0     E   46.5   46.4   46.4   42.9  30.211  0.00  0.00     0     0.00      0     0.0  0.00   0.0   0.128   0.000   68.5    42   44.5   66.3   8.08  .0751    0.000   212    5    100.0   10 
 3/17/19  4:20a   46.4   46.5   46.3    82   41.2   2.0   ENE   0.33   5.0    NE   46.4   46.3   46.3   42.8  30.208  0.00  0.00     0     0.00      0     0.0  0.00   0.0   0.129   0.000   68.4    42   44.4   66.2   8.08  .0751    0.000   212    5    100.0   10 
 3/17/19  4:30a   46.6   46.6   46.4    81   41.1   3.0    NE   0.50   8.0   ENE   45.9   46.4   45.7   42.2  30.205  0.00  0.00     0     0.00      0     0.0  0.00   0.0   0.128   0.000   68.3    42   44.3   66.1   8.08  .0751    0.000   210    5    100.0   10 
 3/17/19  4:40a   46.7   46.7   46.6    80   40.9   2.0   ENE   0.33   6.0     E   46.7   46.5   46.5   43.0  30.200  0.00  0.00     0     0.00      0     0.0  0.00   0.0   0.127   0.000   68.3    42   44.3   66.1   8.08  .0751    0.000   212    5    100.0   10 
 3/17/19  4:50a   48.1   48.1   46.7    79   41.9   4.0   ESE   0.67   9.0    SE   46.7   48.0   46.6   43.1  30.197  0.00  0.00     0     0.00      0     0.0  0.00   0.0   0.117   0.000   68.2    42   44.2   66.0   8.09  .0751    0.000   213    5    100.0   10 
 3/17/19  5:00a   49.2   49.2   48.1    76   42.0   4.0   ESE   0.67   9.0   ENE   47.9   49.0   47.7   44.2  30.195  0.00  0.00     0     0.00      0     0.0  0.00   0.0   0.110   0.000   68.1    42   44.1   65.9   8.09  .0752    0.001   209    5    100.0   10 
 3/17/19  5:10a   49.3   49.4   49.2    73   41.0   4.0   ESE   0.67  11.0     E   48.1   49.0   47.8   44.3  30.193  0.00  0.00     0     0.00      0     0.0  0.00   0.0   0.109   0.000   68.0    42   44.0   65.8   8.09  .0752    0.000   213    5    100.0   10 
 3/17/19  5:20a   49.4   49.4   49.3    72   40.7   5.0   ESE   0.83  10.0    SE   47.5   49.1   47.2   43.7  30.196  0.00  0.00     0     0.00      0     0.0  0.00   0.0   0.108   0.000   68.0    42   44.0   65.8   8.09  .0752    0.000   212    5    100.0   10 
 3/17/19  5:30a   49.8   49.8   49.4    71   40.8   4.0   ESE   0.67  12.0   ESE   48.7   49.4   48.3   44.8  30.196  0.00  0.00     0     0.00      0     0.0  0.00   0.0   0.106   0.000   67.9    42   44.0   65.7   8.09  .0752    0.000   211    5    100.0   10 
 3/17/19  5:40a   49.7   49.8   49.7    70   40.3   4.0    SE   0.67  10.0    SE   48.5   49.3   48.1   44.6  30.199  0.00  0.00     0     0.00      0     0.0  0.00   0.0   0.106   0.000   67.8    42   43.9   65.6   8.09  .0752    0.000   212    5    100.0   10 
 3/17/19  5:50a   49.6   49.7   49.6    69   39.8   5.0   ESE   0.83  11.0    SE   47.7   49.2   47.3   43.7  30.200  0.00  0.00     0     0.00      0     0.0  0.00   0.0   0.107   0.000   67.8    42   43.9   65.6   8.09  .0752    0.000   213    5    100.0   10 
 3/17/19  6:00a   49.2   49.6   49.2    68   39.1   6.0     E   1.00  12.0   ESE   46.7   48.7   46.2   42.6  30.205  0.00  0.00     0     0.00      0     0.0  0.00   0.0   0.110   0.000   67.7    42   43.8   65.5   8.10  .0752    0.001   212    5    100.0   10 
 3/17/19  6:10a   48.5   49.2   48.5    69   38.8   6.0     E   1.00  10.0     E   45.9   48.0   45.4   41.8  30.207  0.00  0.00     0     0.00      0     0.0  0.00   0.0   0.115   0.000   67.7    42   43.8   65.5   8.10  .0752    0.000   211    5    100.0   10 
 3/17/19  6:20a   49.1   49.1   48.4    69   39.4   7.0     E   1.17  11.0    SE   46.1   48.7   45.7   42.1  30.212  0.00  0.00     0     0.00      0     0.0  0.00   0.0   0.110   0.000   67.6    42   43.7   65.4   8.10  .0753    0.000   212    5    100.0   10 
 3/17/19  6:30a   49.1   49.2   49.1    68   39.0   7.0     E   1.17  11.0   SSE   46.1   48.6   45.6   42.0  30.212  0.00  0.00     0     0.00      0     0.0  0.00   0.0   0.110   0.000   67.5    42   43.6   65.3   8.10  .0753    0.000   213    5    100.0   10 
 3/17/19  6:40a   49.4   49.4   49.1    68   39.3   7.0     E   1.17  13.0     E   46.5   48.9   46.0   42.4  30.211  0.00  0.00     0     0.00      0     0.0  0.00   0.0   0.108   0.000   67.5    42   43.6   65.3   8.10  .0753    0.000   213    5    100.0   10 
 3/17/19  6:50a   49.5   49.5   49.3    67   39.0   6.0   ESE   1.00  11.0   ESE   47.1   49.0   46.6   43.0  30.212  0.00  0.00     0     0.00      0     0.0  0.00   0.0   0.108   0.000   67.4    42   43.5   65.2   8.10  .0753    0.000   214    5    100.0   10 
 3/17/19  7:00a   49.9   49.9   49.6    66   39.0   5.0   ESE   0.83  10.0   ESE   48.1   49.3   47.5   43.9  30.214  0.00  0.00     0     0.00      0     0.0  0.00   0.0   0.105   0.000   67.4    42   43.5   65.2   8.10  .0753    0.002   212    5    100.0   10 
 3/17/19  7:10a   49.6   49.9   49.6    66   38.7   5.0     E   0.83   9.0   ENE   47.7   49.0   47.1   43.5  30.212  0.00  0.00     0     0.00      0     0.0  0.00   0.0   0.107   0.000   67.4    42   43.5   65.2   8.10  .0753    0.000   211    5    100.0   10 
 3/17/19  7:20a   49.4   49.6   49.2    67   38.9   6.0     E   1.00  12.0   ENE   47.0   48.9   46.5   42.9  30.214  0.00  0.00     0     0.00      0     0.0  0.00   0.0   0.108   0.000   67.5    42   43.6   65.3   8.10  .0753    0.000   212    5    100.0   10 
 3/17/19  7:30a   49.2   49.5   49.2    67   38.7   7.0     E   1.17  12.0    SE   46.2   48.7   45.7   42.2  30.213  0.00  0.00     7     0.10     11     0.0  0.00   0.0   0.110   0.000   67.6    42   43.7   65.4   8.10  .0753    0.000   212    5    100.0   10 
 3/17/19  7:40a   49.0   49.2   49.0    67   38.5   8.0   ESE   1.33  14.0   ESE   45.3   48.5   44.8   41.7  30.214  0.00  0.00    13     0.19     16     0.0  0.00   0.0   0.111   0.000   67.6    42   43.7   65.4   8.10  .0753    0.000   210    5    100.0   10 
 3/17/19  7:50a   49.0   49.1   49.0    67   38.5   7.0     E   1.17  13.0     E   46.0   48.5   45.5   42.3  30.215  0.00  0.00    18     0.26     21     0.0  0.00   0.0   0.111   0.000   67.7    43   44.4   65.6   8.25  .0753    0.000   211    5    100.0   10 
 3/17/19  8:00a   49.0   49.0   48.9    67   38.5   8.0     E   1.33  13.0     E   45.3   48.5   44.8   41.9  30.218  0.00  0.00    23     0.33     25     0.0  0.00   0.0   0.111   0.000   67.7    43   44.4   65.6   8.25  .0753    0.002   212    5    100.0   10 
 3/17/19  8:10a   49.1   49.1   49.0    67   38.6   7.0     E   1.17  12.0     E   46.1   48.6   45.6   42.6  30.220  0.00  0.00    27     0.39     28     0.0  0.00   0.0   0.110   0.000   67.7    43   44.4   65.6   8.25  .0753    0.000   211    5    100.0   10 
 3/17/19  8:20a   49.3   49.3   49.1    67   38.8   7.0     E   1.17  11.0     E   46.4   48.8   45.9   43.2  30.216  0.00  0.00    43     0.62    100     0.0  0.00   0.0   0.109   0.000   67.7    43   44.4   65.6   8.25  .0753    0.000   212    5    100.0   10 
 3/17/19  8:30a   49.9   49.9   49.3    66   39.0   7.0     E   1.17  13.0   ESE   47.1   49.3   46.5   45.6  30.217  0.00  0.00   126     1.81    142     0.0  0.00   0.0   0.105   0.000   67.8    43   44.5   65.7   8.25  .0752    0.000   210    5    100.0   10 
 3/17/19  8:40a   50.4   50.4   49.8    66   39.5   7.0   ESE   1.17  13.0     E   47.7   49.8   47.1   47.0  30.218  0.00  0.00   161     2.31    176     0.0  0.00   0.0   0.101   0.000   67.8    43   44.5   65.7   8.25  .0752    0.000   213    5    100.0   10 
 3/17/19  8:50a   51.0   51.0   50.4    65   39.6   7.0   ESE   1.17  12.0     E   48.4   50.3   47.7   52.7  30.214  0.00  0.00   193     2.77    207     0.0  0.00   0.0   0.097   0.000   67.8    43   44.5   65.7   8.25  .0752    0.000   213    5    100.0   10 
 3/17/19  9:00a   51.5   51.5   51.0    64   39.7   8.0   ESE   1.33  14.0   ENE   48.3   50.7   47.5   53.3  30.213  0.00  0.00   225     3.23    239     0.0  0.00   0.0   0.094   0.000   67.8    43   44.5   65.7   8.25  .0752    0.004   213    5    100.0   10 
 3/17/19  9:10a   52.5   52.5   51.5    63   40.3   8.0   ESE   1.33  13.0   SSE   49.5   51.6   48.6   55.3  30.213  0.00  0.00   255     3.66    267     0.0  0.00   0.0   0.087   0.000   67.8    43   44.5   65.7   8.25  .0752    0.000   212    5    100.0   10 
 3/17/19  9:20a   52.9   52.9   52.5    61   39.8   7.0     E   1.17  13.0     E   50.7   51.9   49.7   57.4  30.208  0.00  0.00   284     4.07    299     0.0  0.00   0.0   0.084   0.000   67.8    43   44.5   65.7   8.25  .0752    0.000   212    5    100.0   10 
 3/17/19  9:30a   53.2   53.2   52.9    60   39.7   8.0   ESE   1.33  15.0   ESE   50.3   52.1   49.2   57.4  30.208  0.00  0.00   316     4.53    330     0.0  0.00   0.0   0.082   0.000   67.8    43   44.5   65.7   8.25  .0752    0.000   210    5    100.0   10 
 3/17/19  9:40a   53.7   53.7   53.2    58   39.3   9.0     E   1.50  14.0   ESE   50.2   52.4   48.9   57.4  30.206  0.00  0.00   344     4.93    357     0.0  0.00   0.0   0.078   0.000   67.9    43   44.6   65.8   8.25  .0752    0.000   211    5    100.0   10 
 3/17/19  9:50a   54.3   54.3   53.7    57   39.4   8.0   ESE   1.33  15.0    SE   51.7   53.0   50.4   59.7  30.204  0.00  0.00   374     5.36    387     0.0  0.00   0.0   0.074   0.000   67.9    43   44.6   65.8   8.25  .0752    0.000   214    5    100.0   10 
 3/17/19 10:00a   55.0   55.0   54.3    54   38.6   9.0     E   1.50  17.0   ENE   51.8   53.4   50.2   59.5  30.203  0.00  0.00   404     5.79    417     0.0  0.00   0.0   0.069   0.000   67.9    43   44.6   65.8   8.25  .0752    0.009   209    5    100.0   10 
 3/17/19 10:10a   56.0   56.0   55.0    51   38.1   8.0   ESE   1.33  15.0   ESE   53.7   54.2   51.9   62.0  30.208  0.00  0.00   431     6.18    445     0.0  0.00   0.0   0.063   0.000   67.9    43   44.6   65.8   8.25  .0752    0.000   211    5    100.0   10 
 3/17/19 10:20a   56.9   56.9   56.0    48   37.4   7.0     E   1.17  14.0     E   55.5   54.9   53.5   64.3  30.210  0.00  0.00   459     6.58    471     0.0  0.00   0.0   0.056   0.000   67.9    43   44.6   65.8   8.25  .0752    0.000   213    5    100.0   10 
 3/17/19 10:30a   57.7   57.7   56.9    47   37.6   5.0     E   0.83  11.0     E   57.2   55.5   55.0   66.3  30.214  0.00  0.00   486     6.97    497     0.0  0.00   0.0   0.051   0.000   68.0    43   44.7   66.0   8.25  .0752    0.000   211    5    100.0   10 
 3/17/19 10:40a   58.4   58.4   57.7    46   37.7   4.0     E   0.67  11.0    SE   58.4   56.2   56.2   67.8  30.213  0.00  0.00   511     7.33    522     0.0  0.00   0.0   0.046   0.000   68.0    43   44.7   66.0   8.25  .0752    0.000   211    5    100.0   10 
 3/17/19 10:50a   58.6   59.0   58.4    48   39.0   4.0   ESE   0.67   9.0     E   58.6   56.5   56.5   68.2  30.216  0.00  0.00   533     7.64    545     0.0  0.00   0.0   0.044   0.000   68.0    43   44.7   66.0   8.25  .0752    0.000   213    5    100.0   10 
 3/17/19 11:00a   56.6   58.6   56.6    54   40.1   3.0   NNE   0.50   9.0    NE   56.6   54.9   54.9   66.9  30.213  0.00  0.00   556     7.97    568     0.0  0.00   0.0   0.058   0.000   68.0    43   44.7   66.0   8.25  .0752    0.012   212    5    100.0   10 
 3/17/19 11:10a   56.2   56.6   56.0    57   41.2   3.0     S   0.50   9.0   ESE   56.2   54.7   54.7   67.0  30.210  0.00  0.00   579     8.30    587     0.0  0.00   0.0   0.061   0.000   68.0    43   44.7   66.0   8.25  .0752    0.000   213    5    100.0   10 
 3/17/19 11:20a   55.0   56.2   54.9    59   40.9   3.0     S   0.50  10.0   SSW   55.0   53.7   53.7   66.0  30.208  0.00  0.00   596     8.54    603     0.0  0.00   0.0   0.069   0.000   68.1    43   44.7   66.1   8.25  .0752    0.000   210    5    100.0   10 
 3/17/19 11:30a   54.6   55.0   54.5    64   42.7   3.0     N   0.50   7.0   NNE   54.6   53.5   53.5   65.9  30.205  0.00  0.00   611     8.76    619     0.0  0.00   0.0   0.072   0.000   68.2    43   44.8   66.1   8.25  .0751    0.000   211    5    100.0   10 
 3/17/19 11:40a   54.8   54.8   54.6    66   43.7   4.0    NE   0.67  10.0   NNE   54.4   53.8   53.4   66.0  30.205  0.00  0.00   630     9.03    642     0.0  0.00   0.0   0.071   0.000   68.2    43   44.8   66.1   8.25  .0751    0.000   212    5    100.0   10 
 3/17/19 11:50a   54.9   54.9   54.6    68   44.5   3.0    NE   0.50   8.0   NNE   54.9   54.0   54.0   66.7  30.206  0.00  0.00   645     9.25    659     0.0  0.00   0.0   0.070   0.000   68.3    43   44.9   66.2   8.25  .0751    0.000   210    5    100.0   10 
 3/17/19 12:00p   53.2   54.9   53.2    69   43.3   3.0   WNW   0.50   5.0    NW   53.2   52.5   52.5   65.2  30.201  0.00  0.00   656     9.40    670     0.0  0.00   0.0   0.082   0.000   68.3    43   44.9   66.2   8.25  .0751    0.013   213    5    100.0   10 
 3/17/19 12:10p   53.8   53.8   53.1    71   44.6   2.0    NW   0.33   4.0   WNW   53.8   53.1   53.1   66.1  30.197  0.00  0.00   674     9.66    684     0.0  0.00   0.0   0.078   0.000   68.4    43   45.0   66.3   8.25  .0751    0.000   213    5    100.0   10 
 3/17/19 12:20p   54.6   54.6   53.8    71   45.4   3.0   NNE   0.50   7.0   NNE   54.6   53.9   53.9   67.1  30.192  0.00  0.00   688     9.86    700     0.0  0.00   0.0   0.072   0.000   68.4    43   45.0   66.3   8.25  .0751    0.000   212    5    100.0   10 
 3/17/19 12:30p   55.1   55.1   54.6    69   45.1   3.0   NNE   0.50   6.0    NE   55.1   54.3   54.3   67.6  30.190  0.00  0.00   700    10.03    705     0.0  0.00   0.0   0.069   0.000   68.5    43   45.1   66.4   8.25  .0751    0.000   211    5    100.0   10 
 3/17/19 12:40p   56.8   56.8   55.2    67   46.0   5.0    NE   0.83   8.0   NNE   56.2   55.9   55.3   68.7  30.186  0.00  0.00   709    10.16    715     0.0  0.00   0.0   0.057   0.000   68.6    43   45.2   66.5   8.25  .0750    0.000   214    5    100.0   10 
 3/17/19 12:50p   57.7   57.7   56.9    63   45.2   5.0    NE   0.83   8.0   NNE   57.2   56.6   56.1   69.6  30.182  0.00  0.00   717    10.28    721     0.0  0.00   0.0   0.051   0.000   68.8    44   46.0   66.8   8.35  .0750    0.000   213    5    100.0   10 
 3/17/19  1:00p   58.6   58.7   57.7    61   45.2   7.0    NE   1.17  11.0    NE   57.5   57.4   56.3   69.7  30.182  0.00  0.00   724    10.38    728     0.0  0.00   0.0   0.044   0.000   68.9    44   46.1   66.9   8.35  .0750    0.015   211    5    100.0   10 
 3/17/19  1:10p   58.8   58.9   58.6    64   46.6   7.0    NE   1.17  11.0   NNE   57.8   57.7   56.7   70.2  30.180  0.00  0.00   728    10.44    733     0.0  0.00   0.0   0.043   0.000   69.0    44   46.2   67.0   8.35  .0749    0.000   212    5    100.0   10 
 3/17/19  1:20p   58.9   58.9   58.7    64   46.7   7.0    NE   1.17  11.0   NNE   57.9   57.8   56.8   70.5  30.179  0.00  0.00   732    10.49    733     0.0  0.00   0.0   0.042   0.000   69.1    44   46.3   67.1   8.35  .0749    0.000   212    5    100.0   10 
 3/17/19  1:30p   59.7   59.7   59.0    64   47.5   6.0    NE   1.00  10.0     N   59.2   58.7   58.2   72.3  30.176  0.00  0.00   731    10.48    733     0.0  0.00   0.0   0.037   0.000   69.3    44   46.4   67.2   8.35  .0749    0.000   212    5    100.0   10 
 3/17/19  1:40p   58.8   59.7   58.8    65   47.1   8.0    NE   1.33  12.0   ENE   57.1   57.8   56.1   69.5  30.170  0.00  0.00   730    10.46    733     0.0  0.00   0.0   0.043   0.000   69.4    44   46.5   67.3   8.35  .0748    0.000   212    5    100.0   10 
 3/17/19  1:50p   58.3   58.8   58.2    66   47.0   8.0    NE   1.33  13.0   NNE   56.5   57.3   55.5   68.9  30.168  0.00  0.00   727    10.42    729     0.0  0.00   0.0   0.047   0.000   69.5    44   46.6   67.4   8.35  .0748    0.000   211    5    100.0   10 
 3/17/19  2:00p   58.4   58.4   58.2    64   46.3   8.0   NNE   1.33  12.0   NNE   56.6   57.3   55.5   69.1  30.164  0.00  0.00   724    10.38    726     0.0  0.00   0.0   0.046   0.000   69.7    44   46.8   67.5   8.35  .0748    0.017   211    5    100.0   10 
 3/17/19  2:10p   59.5   59.5   58.5    59   45.2   7.0   ENE   1.17  14.0   ENE   58.6   58.1   57.2   71.4  30.163  0.00  0.00   720    10.32    726     0.0  0.00   0.0   0.038   0.000   69.8    44   46.9   67.6   8.35  .0748    0.000   214    5    100.0   10 
 3/17/19  2:20p   60.3   60.3   59.5    58   45.5   7.0   ENE   1.17  13.0    NE   59.6   58.9   58.2   72.6  30.162  0.00  0.00   713    10.22    719     0.0  0.00   0.0   0.033   0.000   69.9    44   47.0   67.6   8.35  .0747    0.000   211    5    100.0   10 
 3/17/19  2:30p   60.4   60.4   60.3    55   44.2   8.0   ENE   1.33  14.0     E   59.0   58.8   57.4   71.3  30.155  0.00  0.00   705    10.11    710     0.0  0.00   0.0   0.032   0.000   70.0    44   47.1   67.7   8.35  .0747    0.000   211    5    100.0   10 
 3/17/19  2:40p   59.9   60.4   59.9    54   43.2   9.0   ENE   1.50  15.0   ENE   57.6   58.2   55.9   69.4  30.154  0.00  0.00   697     9.99    700     0.0  0.00   0.0   0.035   0.000   70.1    44   47.2   67.8   8.35  .0747    0.000   210    5    100.0   10 
 3/17/19  2:50p   59.8   60.0   59.8    56   44.1   8.0    NE   1.33  13.0     E   58.3   58.3   56.8   71.0  30.148  0.00  0.00   686     9.83    694     0.0  0.00   0.0   0.036   0.000   70.2    44   47.3   68.0   8.35  .0746    0.000   212    5    100.0   10 
 3/17/19  3:00p   60.0   60.0   59.8    55   43.8   8.0   ENE   1.33  15.0    NE   58.5   58.4   56.9   71.2  30.146  0.00  0.00   673     9.65    679     0.0  0.00   0.0   0.035   0.000   70.3    44   47.3   68.1   8.34  .0746    0.017   213    5    100.0   10 
 3/17/19  3:10p   59.7   60.0   59.7    59   45.3   8.0    NE   1.33  12.0    NE   58.1   58.3   56.7   71.3  30.144  0.00  0.00   660     9.46    666     0.0  0.00   0.0   0.037   0.000   70.4    44   47.4   68.2   8.34  .0746    0.000   209    5    100.0   10 
 3/17/19  3:20p   58.7   59.7   58.6    62   45.7   8.0    NE   1.33  15.0    NE   56.9   57.5   55.7   70.3  30.143  0.00  0.00   642     9.20    650     0.0  0.00   0.0   0.044   0.000   70.4    44   47.4   68.2   8.34  .0746    0.000   212    5    100.0   10 
 3/17/19  3:30p   58.9   58.9   58.6    60   45.0   7.0    NE   1.17  14.0   NNE   57.9   57.6   56.6   71.9  30.142  0.00  0.00   623     8.93    631     0.0  0.00   0.0   0.042   0.000   70.5    44   47.5   68.4   8.34  .0746    0.000   213    5    100.0   10 
 3/17/19  3:40p   58.8   59.1   58.8    62   45.8   8.0    NE   1.33  12.0   NNE   57.1   57.6   55.9   70.7  30.141  0.00  0.00   606     8.69    615     0.0  0.00   0.0   0.043   0.000   70.6    44   47.6   68.5   8.34  .0746    0.000   209    5    100.0   10 
 3/17/19  3:50p   58.4   58.8   58.0    64   46.3   7.0   NNE   1.17  11.0     N   57.3   57.3   56.2   71.8  30.137  0.00  0.00   587     8.41    599     0.0  0.00   0.0   0.046   0.000   70.7    44   47.7   68.6   8.34  .0745    0.000   212    5    100.0   10 
 3/17/19  4:00p   58.9   58.9   58.4    61   45.5   7.0    NE   1.17  11.0   ENE   57.9   57.7   56.7   72.2  30.130  0.00  0.00   563     8.07    575     0.0  0.00   0.0   0.042   0.000   70.7    44   47.7   68.6   8.34  .0745    0.015   212    5    100.0   10 
 3/17/19  4:10p   59.5   59.5   59.0    59   45.2   7.0    NE   1.17  11.0    NE   58.6   58.1   57.2   72.9  30.124  0.00  0.00   545     7.81    552     0.0  0.00   0.0   0.038   0.000   70.9    44   47.9   68.9   8.33  .0745    0.000   212    5    100.0   10 
 3/17/19  4:20p   60.0   60.0   59.5    60   46.1   6.0    NE   1.00  11.0   NNE   59.6   58.7   58.3   74.5  30.120  0.00  0.00   521     7.47    531     0.0  0.00   0.0   0.035   0.000   70.9    44   47.9   68.9   8.33  .0745    0.000   213    5    100.0   10 
 3/17/19  4:30p   59.7   60.0   59.7    61   46.2   7.0    NE   1.17  12.0    NE   58.8   58.5   57.6   73.0  30.116  0.00  0.00   495     7.10    508     0.0  0.00   0.0   0.037   0.000   71.1    44   48.1   69.1   8.33  .0744    0.000   210    5    100.0   10 
 3/17/19  4:40p   59.1   59.7   59.1    63   46.5   7.0    NE   1.17  12.0    NE   58.1   58.0   57.0   72.2  30.116  0.00  0.00   472     6.77    483     0.0  0.00   0.0   0.041   0.000   71.1    44   48.1   69.1   8.33  .0744    0.000   212    5    100.0   10 
 3/17/19  4:50p   58.4   59.1   58.4    63   45.8   8.0    NE   1.33  14.0     E   56.6   57.3   55.5   69.6  30.115  0.00  0.00   445     6.38    459     0.0  0.00   0.0   0.046   0.000   71.2    44   48.2   69.3   8.33  .0744    0.000   209    5    100.0   10 
 3/17/19  5:00p   58.7   58.7   58.4    64   46.5   7.0    NE   1.17  13.0   NNE   57.6   57.6   56.5   70.8  30.111  0.00  0.00   418     5.99    432     0.0  0.00   0.0   0.044   0.000   71.3    44   48.3   69.5   8.32  .0744    0.012   213    5    100.0   10 
 3/17/19  5:10p   58.7   59.1   58.6    65   47.0   5.0   NNE   0.83  10.0    NE   58.4   57.7   57.4   71.3  30.104  0.00  0.00   388     5.56    404     0.0  0.00   0.0   0.044   0.000   71.4    44   48.3   69.6   8.32  .0743    0.000   214    5    100.0   10 
 3/17/19  5:20p   59.2   59.2   58.6    64   47.0   6.0    NE   1.00  11.0    NE   58.6   58.2   57.6   70.9  30.098  0.00  0.00   358     5.13    373     0.0  0.00   0.0   0.040   0.000   71.5    44   48.4   69.8   8.32  .0743    0.000   212    5    100.0   10 
 3/17/19  5:30p   59.5   59.5   59.2    62   46.5   6.0    NE   1.00  12.0   NNE   59.0   58.3   57.8   61.5  30.095  0.00  0.00   326     4.67    341     0.0  0.00   0.0   0.038   0.000   71.6    44   48.5   69.9   8.32  .0743    0.000   213    5    100.0   10 
 3/17/19  5:40p   59.3   59.6   59.3    61   45.8   6.0    NE   1.00  13.0   ENE   58.8   58.1   57.6   60.7  30.090  0.00  0.00   298     4.27    311     0.0  0.00   0.0   0.040   0.000   71.6    44   48.5   69.9   8.32  .0743    0.000   214    5    100.0   10 
 3/17/19  5:50p   58.9   59.3   58.9    60   45.0   8.0   ENE   1.33  14.0   ENE   57.2   57.6   55.9   58.2  30.085  0.00  0.00   268     3.84    287     0.0  0.00   0.0   0.042   0.000   71.7    44   48.6   70.0   8.32  .0742    0.000   212    5    100.0   10 
 3/17/19  6:00p   58.0   58.9   58.0    63   45.5   8.0    NE   1.33  13.0   NNE   56.1   56.9   55.0   56.5  30.082  0.00  0.00   230     3.30    246     0.0  0.00   0.0   0.049   0.000   71.7    44   48.6   70.0   8.32  .0742    0.008   213    5    100.0   10 
 3/17/19  6:10p   57.5   58.0   57.5    66   46.2   7.0   NNE   1.17  13.0   ENE   56.2   56.5   55.2   56.3  30.081  0.00  0.00   201     2.88    218     0.0  0.00   0.0   0.052   0.000   71.7    44   48.6   70.0   8.32  .0742    0.000   213    5    100.0   10 
 3/17/19  6:20p   57.2   57.5   57.2    68   46.7   5.0    NE   0.83  11.0    NE   56.6   56.3   55.7   55.9  30.078  0.00  0.00   163     2.34    181     0.0  0.00   0.0   0.054   0.000   71.8    44   48.7   70.2   8.31  .0742    0.000   210    5    100.0   10 
 3/17/19  6:30p   57.2   57.3   57.1    68   46.7   4.0   ENE   0.67  10.0   ENE   57.2   56.3   56.3   55.7  30.077  0.00  0.00   124     1.78    142     0.0  0.00   0.0   0.054   0.000   71.9    44   48.8   70.4   8.31  .0742    0.000   208    5    100.0   10 
 3/17/19  6:40p   57.9   57.9   57.2    69   47.8   3.0   ENE   0.50   5.0     E   57.9   57.1   57.1   55.8  30.073  0.00  0.00    91     1.30    104     0.0  0.00   0.0   0.049   0.000   71.9    44   48.8   70.4   8.31  .0742    0.000   213    5    100.0   10 
 3/17/19  6:50p   58.1   58.2   57.9    68   47.6   3.0    NE   0.50   4.0   ENE   58.1   57.2   57.2   55.3  30.073  0.00  0.00    63     0.90     76     0.0  0.00   0.0   0.048   0.000   72.0    44   48.9   70.5   8.31  .0742    0.000   212    5    100.0   10 
 3/17/19  7:00p   58.0   58.2   58.0    68   47.5   2.0    NE   0.33   4.0    NE   58.0   57.1   57.1   54.7  30.073  0.00  0.00    39     0.56     49     0.0  0.00   0.0   0.049   0.000   72.0    44   48.9   70.5   8.31  .0742    0.003   210    5    100.0   10 
 3/17/19  7:10p   57.3   58.0   57.3    69   47.2   3.0    NE   0.50   4.0    NE   57.3   56.5   56.5   53.8  30.071  0.00  0.00    22     0.32     28     0.0  0.00   0.0   0.053   0.000   72.0    44   48.9   70.5   8.31  .0741    0.000   211    5    100.0   10 
 3/17/19  7:20p   56.3   57.3   56.3    69   46.3   2.0    NE   0.33   4.0    NE   56.3   55.5   55.5   52.5  30.070  0.00  0.00    11     0.16     16     0.0  0.00   0.0   0.060   0.000   72.1    44   49.0   70.7   8.31  .0741    0.000   210    5    100.0   10 
 3/17/19  7:30p   55.6   56.3   55.6    70   46.0   1.0    NE   0.17   2.0    NE   55.6   54.8   54.8   51.6  30.069  0.00  0.00     3     0.04      7     0.0  0.00   0.0   0.065   0.000   72.1    44   49.0   70.7   8.31  .0741    0.000   212    5    100.0   10 
 3/17/19  7:40p   55.0   55.6   55.0    71   45.8   1.0    NE   0.17   2.0    NE   55.0   54.3   54.3   51.0  30.068  0.00  0.00     0     0.00      0     0.0  0.00   0.0   0.069   0.000   72.1    44   49.0   70.7   8.31  .0741    0.000   211    5    100.0   10 
 3/17/19  7:50p   54.3   55.0   54.3    72   45.5   1.0    NE   0.17   3.0    NE   54.3   53.7   53.7   50.4  30.069  0.00  0.00     0     0.00      0     0.0  0.00   0.0   0.074   0.000   72.1    44   49.0   70.7   8.31  .0741    0.000   212    5    100.0   10 
 3/17/19  8:00p   53.7   54.3   53.7    72   44.9   1.0    NE   0.17   2.0    NE   53.7   53.1   53.1   49.8  30.070  0.00  0.00     0     0.00      0     0.0  0.00   0.0   0.078   0.000   72.0    44   48.9   70.5   8.31  .0741    0.001   213    5    100.0   10 
 3/17/19  8:10p   53.7   53.7   53.3    74   45.6   3.0    NE   0.50   8.0     E   53.7   53.2   53.2   49.9  30.067  0.00  0.00     0     0.00      0     0.0  0.00   0.0   0.078   0.000   72.0    44   48.9   70.5   8.31  .0741    0.000   210    5    100.0   10 
 3/17/19  8:20p   56.9   56.9   53.7    71   47.6   6.0     E   1.00  11.0   ENE   55.9   56.2   55.2   52.0  30.066  0.00  0.00     0     0.00      0     0.0  0.00   0.0   0.056   0.000   72.0    44   48.9   70.5   8.31  .0741    0.000   212    5    100.0   10 
 3/17/19  8:30p   60.0   60.0   57.0    60   46.1   7.0     E   1.17  13.0   ESE   59.2   58.7   57.9   54.6  30.064  0.00  0.00     0     0.00      0     0.0  0.00   0.0   0.035   0.000   72.0    44   48.9   70.5   8.31  .0741    0.000   210    5    100.0   10 
 3/17/19  8:40p   61.1   61.1   60.0    52   43.3   9.0     E   1.50  20.0   ESE   59.0   59.3   57.2   54.1  30.061  0.00  0.00     0     0.00      0     0.0  0.00   0.0   0.027   0.000   71.9    44   48.8   70.4   8.31  .0741    0.000   212    5    100.0   10 
 3/17/19  8:50p   61.4   61.4   61.1    48   41.5  10.0     E   1.67  20.0   ESE   58.6   59.3   56.5   53.4  30.059  0.00  0.00     0     0.00      0     0.0  0.00   0.0   0.025   0.000   71.9    44   48.8   70.4   8.31  .0741    0.000   211    5    100.0   10 
 3/17/19  9:00p   60.9   61.4   60.9    49   41.6  10.0     E   1.67  18.0   ESE   58.0   58.8   55.9   52.8  30.057  0.00  0.00     0     0.00      0     0.0  0.00   0.0   0.028   0.000   71.9    44   48.8   70.4   8.31  .0741    0.003   213    5    100.0   10 
 3/17/19  9:10p   60.2   60.9   60.2    50   41.5  10.0     E   1.67  17.0     S   57.2   58.2   55.2   52.1  30.056  0.00  0.00     0     0.00      0     0.0  0.00   0.0   0.033   0.000   71.9    44   48.8   70.4   8.31  .0741    0.000   208    5    100.0   10 
 3/17/19  9:20p   60.2   60.2   60.1    50   41.5  10.0     E   1.67  15.0   ESE   57.2   58.2   55.2   52.1  30.051  0.00  0.00     0     0.00      0     0.0  0.00   0.0   0.033   0.000   71.8    44   48.7   70.2   8.31  .0741    0.000   210    5    100.0   10 
 3/17/19  9:30p   60.0   60.3   60.0    50   41.3  10.0     E   1.67  16.0     E   57.0   58.0   55.0   51.9  30.053  0.00  0.00     0     0.00      0     0.0  0.00   0.0   0.035   0.000   71.8    44   48.7   70.2   8.31  .0741    0.000   213    5    100.0   10 
 3/17/19  9:40p   59.4   60.0   59.4    52   41.8  10.0     E   1.67  20.0     E   56.3   57.6   54.5   51.4  30.050  0.00  0.00     0     0.00      0     0.0  0.00   0.0   0.039   0.000   71.8    44   48.7   70.2   8.31  .0741    0.000   212    5    100.0   10 
 3/17/19  9:50p   59.3   59.4   59.2    52   41.7  11.0     E   1.83  18.0   ESE   55.5   57.5   53.7   50.7  30.049  0.00  0.00     0     0.00      0     0.0  0.00   0.0   0.040   0.000   71.8    44   48.7   70.2   8.31  .0741    0.000   213    5    100.0   10 
 3/17/19 10:00p   59.3   59.3   59.2    51   41.2  11.0     E   1.83  19.0   ENE   55.5   57.4   53.6   50.6  30.045  0.00  0.00     0     0.00      0     0.0  0.00   0.0   0.040   0.000   71.7    44   48.6   70.0   8.32  .0741    0.005   213    5    100.0   10 
 3/17/19 10:10p   59.3   59.5   59.3    51   41.2  11.0     E   1.83  20.0     E   55.5   57.4   53.6   50.6  30.046  0.00  0.00     0     0.00      0     0.0  0.00   0.0   0.040   0.000   71.7    44   48.6   70.0   8.32  .0741    0.000   210    5    100.0   10 
 3/17/19 10:20p   58.9   59.3   58.9    52   41.3  12.0     E   2.00  20.0    SE   54.5   57.1   52.7   49.8  30.042  0.00  0.00     0     0.00      0     0.0  0.00   0.0   0.042   0.000   71.7    44   48.6   70.0   8.32  .0741    0.000   212    5    100.0   10 
 3/17/19 10:30p   58.3   58.9   58.3    53   41.2  11.0     E   1.83  18.0     E   54.4   56.5   52.6   49.6  30.041  0.00  0.00     0     0.00      0     0.0  0.00   0.0   0.047   0.000   71.6    44   48.5   69.9   8.32  .0741    0.000   212    5    100.0   10 
 3/17/19 10:40p   58.1   58.3   58.1    53   41.0  10.0     E   1.67  16.0     E   54.7   56.3   52.9   49.8  30.041  0.00  0.00     0     0.00      0     0.0  0.00   0.0   0.048   0.000   71.6    44   48.5   69.9   8.32  .0741    0.000   212    5    100.0   10 
 3/17/19 10:50p   58.1   58.2   58.1    53   41.0  11.0     E   1.83  16.0    SE   54.1   56.3   52.3   49.3  30.038  0.00  0.00     0     0.00      0     0.0  0.00   0.0   0.048   0.000   71.6    44   48.5   69.9   8.32  .0741    0.000   211    5    100.0   10 
 3/17/19 11:00p   58.2   58.3   58.1    52   40.6  11.0     E   1.83  16.0     E   54.2   56.4   52.4   49.4  30.035  0.00  0.00     0     0.00      0     0.0  0.00   0.0   0.047   0.000   71.6    44   48.5   69.9   8.32  .0741    0.004   209    5    100.0   10 
 3/17/19 11:10p   58.0   58.1   58.0    53   41.0  11.0     E   1.83  18.0   ESE   54.0   56.2   52.2   49.2  30.034  0.00  0.00     0     0.00      0     0.0  0.00   0.0   0.049   0.000   71.5    44   48.4   69.8   8.32  .0741    0.000   212    5    100.0   10 
 3/17/19 11:20p   57.9   58.0   57.9    52   40.4  12.0     E   2.00  19.0     E   53.4   56.1   51.6   48.7  30.035  0.00  0.00     0     0.00      0     0.0  0.00   0.0   0.049   0.000   71.5    44   48.4   69.8   8.32  .0741    0.000   211    5    100.0   10 
 3/17/19 11:30p   57.9   57.9   57.8    51   39.9  11.0     E   1.83  20.0   ESE   53.9   56.0   52.0   48.9  30.036  0.00  0.00     0     0.00      0     0.0  0.00   0.0   0.049   0.000   71.5    44   48.4   69.8   8.32  .0741    0.000   214    5    100.0   10 
 3/17/19 11:40p   58.0   58.0   57.9    50   39.5  12.0     E   2.00  19.0     E   53.5   56.0   51.5   48.5  30.034  0.00  0.00     0     0.00      0     0.0  0.00   0.0   0.049   0.000   71.4    44   48.3   69.6   8.32  .0742    0.000   212    5    100.0   10 
 3/17/19 11:50p   58.0   58.1   58.0    50   39.5  12.0     E   2.00  18.0   ESE   53.5   56.0   51.5   48.5  30.034  0.00  0.00     0     0.00      0     0.0  0.00   0.0   0.049   0.000   71.4    44   48.3   69.6   8.32  .0742    0.000   211    5    100.0   10 
 3/18/19 12:00a   58.1   58.1   58.0    49   39.0  12.0     E   2.00  25.0     E   53.6   56.0   51.5   48.5  30.031  0.00  0.00     0     0.00      0     0.0  0.00   0.0   0.048   0.000   71.4    44   48.3   69.6   8.32  .0742    0.005   211    5    100.0   10 
 3/18/19 12:10a   57.8   58.1   57.8    50   39.3  12.0     E   2.00  21.0   ESE   53.3   55.8   51.3   48.3  30.033  0.00  0.00     0     0.00      0     0.0  0.00   0.0   0.050   0.000   71.3    43   47.6   69.4   8.20  .0742    0.000   211    5    100.0   10 
 3/18/19 12:20a   57.8   57.8   57.7    49   38.8  11.0     E   1.83  23.0   ENE   53.8   55.8   51.8   48.7  30.034  0.00  0.00     0     0.00      0     0.0  0.00   0.0   0.050   0.000   71.3    44   48.3   69.5   8.32  .0742    0.000   212    5    100.0   10 
 3/18/19 12:30a   57.8   57.8   57.7    48   38.2  12.0     E   2.00  20.0   ESE   53.3   55.7   51.2   48.2  30.032  0.00  0.00     0     0.00      0     0.0  0.00   0.0   0.050   0.000   71.3    43   47.6   69.4   8.20  .0742    0.000   214    5    100.0   10 
 3/18/19 12:40a   57.8   57.8   57.8    47   37.7  12.0     E   2.00  18.0     E   53.3   55.6   51.1   48.1  30.033  0.00  0.00     0     0.00      0     0.0  0.00   0.0   0.050   0.000   71.2    43   47.6   69.2   8.20  .0742    0.000   208    5    100.0   10 
 3/18/19 12:50a   57.7   57.8   57.7    47   37.6  12.0     E   2.00  20.0     E   53.1   55.5   50.9   47.9  30.030  0.00  0.00     0     0.00      0     0.0  0.00   0.0   0.051   0.000   71.2    43   47.6   69.2   8.20  .0742    0.000   213    5    100.0   10 
 3/18/19  1:00a   57.2   57.7   57.2    48   37.7  13.0     E   2.17  19.0   ESE   52.1   55.2   50.1   47.2  30.027  0.00  0.00     0     0.00      0     0.0  0.00   0.0   0.054   0.000   71.2    43   47.6   69.2   8.20  .0742    0.005   212    5    100.0   10 
 3/18/19  1:10a   56.9   57.1   56.9    47   36.9  13.0     E   2.17  19.0   ESE   51.8   54.8   49.7   46.8  30.024  0.00  0.00     0     0.00      0     0.0  0.00   0.0   0.056   0.000   71.1    43   47.5   69.1   8.21  .0742    0.000   212    5    100.0   10 
 3/18/19  1:20a   56.8   56.9   56.8    47   36.8  12.0     E   2.00  21.0     E   52.1   54.7   50.0   47.0  30.025  0.00  0.00     0     0.00      0     0.0  0.00   0.0   0.057   0.000   71.1    43   47.5   69.1   8.21  .0742    0.000   214    5    100.0   10 
 3/18/19  1:30a   56.9   56.9   56.8    46   36.3  13.0     E   2.17  21.0   ESE   51.8   54.8   49.7   46.8  30.023  0.00  0.00     0     0.00      0     0.0  0.00   0.0   0.056   0.000   71.0    43   47.4   68.9   8.21  .0742    0.000   211    5    100.0   10 
 3/18/19  1:40a   56.9   56.9   56.8    45   35.8  13.0     E   2.17  21.0    SE   51.8   54.7   49.6   46.7  30.016  0.00  0.00     0     0.00      0     0.0  0.00   0.0   0.056   0.000   71.0    43   47.4   68.9   8.21  .0742    0.000   211    5    100.0   10 
 3/18/19  1:50a   57.0   57.0   56.9    44   35.3  13.0     E   2.17  19.0     E   51.9   54.7   49.6   46.7  30.016  0.00  0.00     0     0.00      0     0.0  0.00   0.0   0.056   0.000   71.0    43   47.4   68.9   8.21  .0742    0.000   211    5    100.0   10 
 3/18/19  2:00a   56.9   57.2   56.9    44   35.2  13.0     E   2.17  27.0   ESE   51.8   54.6   49.5   46.6  30.012  0.00  0.00     0     0.00      0     0.0  0.00   0.0   0.056   0.000   70.9    43   47.3   68.8   8.21  .0742    0.005   211    5    100.0   10 
 3/18/19  2:10a   56.7   56.9   56.6    44   35.0  13.0     E   2.17  21.0   ESE   51.5   54.4   49.2   46.3  30.017  0.00  0.00     0     0.00      0     0.0  0.00   0.0   0.058   0.000   70.9    43   47.3   68.8   8.21  .0742    0.000   209    5    100.0   10 
 3/18/19  2:20a   56.5   56.8   56.5    44   34.8  13.0     E   2.17  22.0   ESE   51.3   54.2   49.0   46.0  30.013  0.00  0.00     0     0.00      0     0.0  0.00   0.0   0.059   0.000   70.8    43   47.2   68.6   8.22  .0742    0.000   212    5    100.0   10 
 3/18/19  2:30a   56.3   56.5   56.3    44   34.6  13.0     E   2.17  21.0    SE   51.1   54.0   48.8   45.8  30.010  0.00  0.00     0     0.00      0     0.0  0.00   0.0   0.060   0.000   70.8    43   47.2   68.6   8.22  .0742    0.000   211    5    100.0   10 
 3/18/19  2:40a   56.4   56.6   56.3    43   34.2  14.0     E   2.33  28.0     E   50.8   54.1   48.5   45.6  30.011  0.00  0.00     0     0.00      0     0.0  0.00   0.0   0.060   0.000   70.7    43   47.1   68.5   8.22  .0742    0.000   212    5    100.0   10 
 3/18/19  2:50a   56.3   56.4   56.3    43   34.1  13.0     E   2.17  21.0     E   51.1   54.0   48.8   45.8  30.012  0.00  0.00     0     0.00      0     0.0  0.00   0.0   0.060   0.000   70.7    43   47.1   68.5   8.22  .0742    0.000   213    5    100.0   10 
 3/18/19  3:00a   56.2   56.3   56.2    42   33.4  13.0     E   2.17  20.0     E   50.9   53.8   48.5   45.5  30.007  0.00  0.00     0     0.00      0     0.0  0.00   0.0   0.061   0.000   70.6    43   47.0   68.4   8.23  .0742    0.006   212    5    100.0   10 
 3/18/19  3:10a   56.4   56.4   56.2    42   33.6  14.0     E   2.33  22.0     E   50.8   54.0   48.4   45.5  30.006  0.00  0.00     0     0.00      0     0.0  0.00   0.0   0.060   0.000   70.6    43   47.0   68.4   8.23  .0742    0.000   212    5    100.0   10 
 3/18/19  3:20a   56.0   56.3   56.0    42   33.2  13.0     E   2.17  20.0   ESE   50.7   53.6   48.3   45.3  30.000  0.00  0.00     0     0.00      0     0.0  0.00   0.0   0.063   0.000   70.5    43   46.9   68.3   8.23  .0742    0.000   213    5    100.0   10 
 3/18/19  3:30a   56.0   56.2   56.0    42   33.2  13.0     E   2.17  20.0     E   50.7   53.6   48.3   45.3  30.000  0.00  0.00     0     0.00      0     0.0  0.00   0.0   0.063   0.000   70.5    43   46.9   68.3   8.23  .0742    0.000   211    5    100.0   10 
 3/18/19  3:40a   55.9   56.0   55.8    41   32.5  14.0     E   2.33  23.0     E   50.2   53.5   47.8   44.9  29.999  0.00  0.00     0     0.00      0     0.0  0.00   0.0   0.063   0.000   70.5    43   46.9   68.3   8.23  .0742    0.000   213    5    100.0   10 
 3/18/19  3:50a   55.8   55.9   55.7    41   32.4  13.0     E   2.17  25.0     E   50.5   53.4   48.1   45.1  29.995  0.00  0.00     0     0.00      0     0.0  0.00   0.0   0.064   0.000   70.4    43   46.8   68.1   8.23  .0742    0.000   213    5    100.0   10 
 3/18/19  4:00a   55.9   55.9   55.8    40   31.9  13.0     E   2.17  21.0   ENE   50.6   53.4   48.1   45.0  29.992  0.00  0.00     0     0.00      0     0.0  0.00   0.0   0.063   0.000   70.3    43   46.7   68.0   8.24  .0743    0.006   211    5    100.0   10 
 3/18/19  4:10a   56.0   56.0   55.9    40   32.0  13.0     E   2.17  20.0    SE   50.7   53.5   48.2   45.1  29.992  0.00  0.00     0     0.00      0     0.0  0.00   0.0   0.063   0.000   70.3    43   46.7   68.0   8.24  .0743    0.000   212    5    100.0   10 
 3/18/19  4:20a   56.3   56.3   56.0    39   31.6  13.0     E   2.17  21.0   SSE   51.1   53.7   48.5   45.4  29.992  0.00  0.00     0     0.00      0     0.0  0.00   0.0   0.060   0.000   70.2    43   46.6   67.9   8.24  .0743    0.000   213    5    100.0   10 
 3/18/19  4:30a   56.2   56.4   56.2    39   31.5  13.0     E   2.17  21.0   ESE   50.9   53.6   48.3   45.2  29.986  0.00  0.00     0     0.00      0     0.0  0.00   0.0   0.061   0.000   70.2    43   46.6   67.9   8.24  .0743    0.000   213    5    100.0   10 
 3/18/19  4:40a   55.8   56.2   55.8    39   31.2  13.0     E   2.17  24.0     E   50.5   53.3   48.0   44.9  29.984  0.00  0.00     0     0.00      0     0.0  0.00   0.0   0.064   0.000   70.1    43   46.6   67.7   8.25  .0743    0.000   212    5    100.0   10 
 3/18/19  4:50a   55.7   55.8   55.6    39   31.1  13.0     E   2.17  22.0     E   50.4   53.2   47.9   44.8  29.986  0.00  0.00     0     0.00      0     0.0  0.00   0.0   0.065   0.000   70.1    43   46.6   67.7   8.25  .0743    0.000   211    5    100.0   10 
 3/18/19  5:00a   55.8   55.8   55.6    39   31.2  14.0   ESE   2.33  25.0     E   50.1   53.3   47.6   44.6  29.987  0.00  0.00     0     0.00      0     0.0  0.00   0.0   0.064   0.000   70.0    43   46.5   67.6   8.25  .0743    0.006   212    5    100.0   10 
 3/18/19  5:10a   55.7   55.8   55.7    39   31.1  14.0   ESE   2.33  22.0   SSE   50.0   53.2   47.5   44.5  29.987  0.00  0.00     0     0.00      0     0.0  0.00   0.0   0.065   0.000   70.0    43   46.5   67.6   8.25  .0743    0.000   213    5    100.0   10 
 3/18/19  5:20a   55.8   55.9   55.7    38   30.5  14.0   ESE   2.33  25.0   ESE   50.1   53.2   47.5   44.5  29.989  0.00  0.00     0     0.00      0     0.0  0.00   0.0   0.064   0.000   69.9    43   46.4   67.5   8.25  .0743    0.000   212    5    100.0   10 
 3/18/19  5:30a   55.4   55.8   55.4    39   30.8  14.0   ESE   2.33  23.0   ESE   49.6   53.0   47.2   44.2  29.987  0.00  0.00     0     0.00      0     0.0  0.00   0.0   0.067   0.000   69.9    43   46.4   67.5   8.25  .0743    0.000   213    5    100.0   10 
 3/18/19  5:40a   55.0   55.4   55.0    40   31.1  14.0     E   2.33  26.0     E   49.2   52.7   46.9   43.9  29.983  0.00  0.00     0     0.00      0     0.0  0.00   0.0   0.069   0.000   69.8    43   46.3   67.5   8.25  .0743    0.000   211    5    100.0   10 
 3/18/19  5:50a   55.0   55.1   55.0    40   31.1  14.0     E   2.33  22.0   ESE   49.2   52.7   46.9   43.9  29.983  0.00  0.00     0     0.00      0     0.0  0.00   0.0   0.069   0.000   69.7    42   45.6   67.3   8.06  .0744    0.000   214    5    100.0   10 
 3/18/19  6:00a   54.9   55.0   54.9    40   31.0  14.0     E   2.33  23.0    SE   49.1   52.6   46.8   43.8  29.981  0.00  0.00     0     0.00      0     0.0  0.00   0.0   0.070   0.000   69.7    42   45.6   67.3   8.06  .0743    0.006   212    5    100.0   10 
 3/18/19  6:10a   55.1   55.1   54.9    40   31.2  14.0     E   2.33  25.0     E   49.3   52.8   47.0   44.0  29.979  0.00  0.00     0     0.00      0     0.0  0.00   0.0   0.069   0.000   69.7    42   45.6   67.3   8.06  .0743    0.000   212    5    100.0   10 
 3/18/19  6:20a   55.1   55.2   55.0    39   30.6  14.0     E   2.33  24.0     E   49.3   52.7   46.9   43.9  29.977  0.00  0.00     0     0.00      0     0.0  0.00   0.0   0.069   0.000   69.6    42   45.5   67.2   8.06  .0744    0.000   214    5    100.0   10 
 3/18/19  6:30a   54.6   55.1   54.6    40   30.7  14.0     E   2.33  27.0     E   48.8   52.3   46.5   43.5  29.975  0.00  0.00     0     0.00      0     0.0  0.00   0.0   0.072   0.000   69.5    42   45.4   67.1   8.06  .0744    0.000   210    5    100.0   10 
 3/18/19  6:40a   54.5   54.7   54.5    41   31.3  14.0     E   2.33  27.0   ESE   48.7   52.3   46.5   43.5  29.979  0.00  0.00     0     0.00      0     0.0  0.00   0.0   0.073   0.000   69.5    42   45.4   67.1   8.06  .0744    0.000   211    5    100.0   10 
 3/18/19  6:50a   54.2   54.5   54.2    41   31.0  13.0     E   2.17  23.0   ESE   48.6   52.0   46.4   43.3  29.977  0.00  0.00     0     0.00      0     0.0  0.00   0.0   0.075   0.000   69.5    42   45.4   67.1   8.06  .0744    0.000   212    5    100.0   10 
 3/18/19  7:00a   53.9   54.2   53.9    42   31.3  14.0     E   2.33  27.0     E   48.0   51.8   45.9   42.9  29.978  0.00  0.00     0     0.00      0     0.0  0.00   0.0   0.077   0.000   69.5    43   46.0   67.3   8.25  .0744    0.006   210    5    100.0   10 
 3/18/19  7:10a   53.7   53.9   53.7    42   31.1  13.0     E   2.17  19.0     E   48.1   51.6   46.0   42.9  29.984  0.00  0.00     0     0.00      0     0.0  0.00   0.0   0.078   0.000   69.5    43   46.0   67.3   8.25  .0744    0.000   212    5    100.0   10 
 3/18/19  7:20a   53.7   53.8   53.7    43   31.7  12.0     E   2.00  25.0   ESE   48.5   51.7   46.5   43.3  29.985  0.00  0.00     1     0.01      5     0.0  0.00   0.0   0.078   0.000   69.5    43   46.0   67.3   8.25  .0744    0.000   213    5    100.0   10 
 3/18/19  7:30a   52.9   53.7   52.9    45   32.1  12.0     E   2.00  19.0   ESE   47.6   51.1   45.8   42.8  29.989  0.00  0.00     8     0.11     11     0.0  0.00   0.0   0.084   0.000   69.5    43   46.0   67.3   8.25  .0744    0.000   211    5    100.0   10 
 3/18/19  7:40a   52.9   52.9   52.7    45   32.1  12.0     E   2.00  20.0     E   47.6   51.1   45.8   42.8  29.993  0.00  0.00    13     0.19     14     0.0  0.00   0.0   0.084   0.000   69.6    43   46.1   67.3   8.25  .0744    0.000   212    5    100.0   10 
 3/18/19  7:50a   53.1   53.1   52.9    44   31.7  12.0     E   2.00  20.0     E   47.8   51.2   45.9   43.0  29.993  0.00  0.00    17     0.24     19     0.0  0.00   0.0   0.083   0.000   69.6    43   46.1   67.3   8.25  .0744    0.000   214    5    100.0   10 
 3/18/19  8:00a   52.5   53.1   52.5    46   32.3  12.0     E   2.00  18.0     E   47.2   50.8   45.5   42.7  29.996  0.00  0.00    21     0.30     23     0.0  0.00   0.0   0.087   0.000   69.6    43   46.1   67.3   8.25  .0744    0.005   212    5    100.0   10 
 3/18/19  8:10a   52.3   52.6   52.3    47   32.6  11.0     E   1.83  17.0     E   47.4   50.7   45.8   43.0  29.995  0.00  0.00    24     0.34     25     0.0  0.00   0.0   0.088   0.000   69.6    43   46.1   67.3   8.25  .0744    0.000   212    5    100.0   10 
 3/18/19  8:20a   53.0   53.0   52.2    46   32.8  11.0     E   1.83  19.0   ESE   48.2   51.2   46.4   44.1  29.988  0.00  0.00    53     0.76    120     0.0  0.00   0.0   0.083   0.000   69.6    43   46.1   67.3   8.25  .0744    0.000   214    5    100.0   10 
 3/18/19  8:30a   54.6   54.6   53.0    42   31.9  12.0   ESE   2.00  20.0   ESE   49.6   52.4   47.4   46.7  29.986  0.00  0.00   140     2.01    158     0.0  0.00   0.0   0.072   0.000   69.6    43   46.1   67.3   8.25  .0744    0.000   213    5    100.0   10 
 3/18/19  8:40a   55.6   55.6   54.6    40   31.6  14.0   ESE   2.33  25.0    SE   49.9   53.2   47.5   50.8  29.985  0.00  0.00   176     2.52    192     0.0  0.00   0.0   0.065   0.000   69.6    43   46.1   67.3   8.25  .0744    0.000   210    5    100.0   10 
 3/18/19  8:50a   56.2   56.2   55.6    39   31.5  14.0   ESE   2.33  23.0   ESE   50.5   53.6   47.9   52.1  29.985  0.00  0.00   209     3.00    223     0.0  0.00   0.0   0.061   0.000   69.6    43   46.1   67.3   8.25  .0744    0.000   214    5    100.0   10 
 3/18/19  9:00a   56.9   56.9   56.2    38   31.5  13.0   ESE   2.17  19.0   ENE   51.8   54.2   49.1   54.2  29.981  0.00  0.00   241     3.45    255     0.0  0.00   0.0   0.056   0.000   69.6    43   46.1   67.3   8.25  .0743    0.008   211    5    100.0   10 
 3/18/19  9:10a   58.1   58.1   56.9    36   31.3  13.0   ESE   2.17  24.0   ESE   53.1   55.2   50.2   56.0  29.983  0.00  0.00   271     3.88    285     0.0  0.00   0.0   0.048   0.000   69.6    43   46.1   67.3   8.25  .0744    0.000   213    5    100.0   10 
 3/18/19  9:20a   59.1   59.1   58.1    34   30.7  12.0   ESE   2.00  22.0    SE   54.7   55.9   51.5   58.1  29.984  0.00  0.00   301     4.31    315     0.0  0.00   0.0   0.041   0.000   69.6    43   46.1   67.3   8.25  .0744    0.000   213    5    100.0   10 
 3/18/19  9:30a   59.6   59.6   59.1    34   31.2  11.0   ESE   1.83  22.0   SSE   55.9   56.4   52.7   60.3  29.987  0.00  0.00   333     4.77    348     0.0  0.00   0.0   0.038   0.000   69.6    43   46.1   67.3   8.25  .0744    0.000   212    5    100.0   10 
 3/18/19  9:40a   60.1   60.1   59.6    34   31.6  10.0   ESE   1.67  22.0   SSE   57.1   56.9   53.9   62.3  29.986  0.00  0.00   362     5.19    374     0.0  0.00   0.0   0.034   0.000   69.6    43   46.1   67.3   8.25  .0744    0.000   213    5    100.0   10 
 3/18/19  9:50a   60.6   60.6   60.1    34   32.1  10.0   ESE   1.67  24.0   ESE   57.7   57.4   54.5   63.3  29.990  0.00  0.00   391     5.61    404     0.0  0.00   0.0   0.031   0.000   69.6    43   46.1   67.3   8.25  .0744    0.000   211    5    100.0   10 
 3/18/19 10:00a   61.3   61.3   60.6    32   31.2  11.0   ESE   1.83  22.0    SE   57.8   57.9   54.4   63.2  29.985  0.00  0.00   421     6.04    434     0.0  0.00   0.0   0.026   0.000   69.7    43   46.2   67.4   8.25  .0743    0.013   213    5    100.0   10 
 3/18/19 10:10a   62.2   62.2   61.3    30   30.4  10.0   ESE   1.67  20.0   ESE   59.5   58.6   55.9   65.3  29.983  0.00  0.00   449     6.44    461     0.0  0.00   0.0   0.019   0.000   69.6    43   46.1   67.3   8.25  .0744    0.000   214    5    100.0   10 
 3/18/19 10:20a   63.1   63.1   62.2    29   30.3  10.0   ESE   1.67  21.0     E   60.6   59.2   56.7   66.4  29.981  0.00  0.00   476     6.82    489     0.0  0.00   0.0   0.013   0.000   69.7    43   46.2   67.4   8.25  .0743    0.000   213    5    100.0   10 
 3/18/19 10:30a   63.8   63.8   63.1    28   30.0  12.0   ESE   2.00  19.0    SE   60.1   59.7   56.0   65.4  29.979  0.00  0.00   504     7.22    515     0.0  0.00   0.0   0.008   0.000   69.7    43   46.2   67.4   8.25  .0743    0.000   213    5    100.0   10 
 3/18/19 10:40a   64.5   64.5   63.8    28   30.6  11.0   ESE   1.83  22.0    SE   61.5   60.4   57.4   67.3  29.977  0.00  0.00   529     7.58    540     0.0  0.00   0.0   0.003   0.000   69.7    43   46.2   67.4   8.25  .0743    0.000   213    5    100.0   10 
 3/18/19 10:50a   65.3   65.3   64.5    26   29.5   9.0   ESE   1.50  20.0   SSE   63.9   60.9   59.5   70.2  29.970  0.00  0.00   552     7.91    564     0.0  0.00   0.0   0.000   0.002   69.8    43   46.3   67.5   8.25  .0743    0.000   210    5    100.0   10 
 3/18/19 11:00a   66.1   66.1   65.3    26   30.2   9.0   ESE   1.50  22.0   SSE   64.8   61.6   60.3   71.3  29.968  0.00  0.00   578     8.29    589     0.0  0.00   0.0   0.000   0.008   69.8    43   46.3   67.5   8.25  .0743    0.017   212    5    100.0   10 
 3/18/19 11:10a   66.8   66.8   66.1    25   29.8   8.0   ESE   1.33  19.0    SE   66.2   62.1   61.5   73.0  29.968  0.00  0.00   600     8.60    608     0.0  0.00   0.0   0.000   0.013   69.8    43   46.3   67.5   8.25  .0743    0.000   211    5    100.0   10 
 3/18/19 11:20a   67.6   67.6   66.8    25   30.5   9.0   ESE   1.50  18.0     S   66.2   63.2   61.8   73.0  29.970  0.00  0.00   621     8.90    629     0.0  0.00   0.0   0.000   0.018   69.9    43   46.4   67.5   8.25  .0743    0.000   212    5    100.0   10 
 3/18/19 11:30a   68.5   68.5   67.6    24   30.3   7.0     E   1.17  17.0   ESE   68.5   64.2   64.2   76.5  29.971  0.00  0.00   642     9.20    650     0.0  0.00   0.0   0.000   0.024   70.0    43   46.5   67.6   8.25  .0743    0.000   212    5    100.0   10 
 3/18/19 11:40a   69.4   69.4   68.5    23   30.0   8.0   ESE   1.33  15.0   SSE   68.8   65.1   64.5   76.4  29.974  0.00  0.00   659     9.45    666     0.0  0.00   0.0   0.000   0.031   70.0    43   46.5   67.6   8.25  .0743    0.000   214    5    100.0   10 
 3/18/19 11:50a   70.2   70.2   69.4    22   29.5   9.0   ESE   1.50  18.0    SE   68.8   65.9   64.5   76.0  29.969  0.00  0.00   675     9.68    682     0.0  0.00   0.0   0.000   0.036   70.1    43   46.6   67.7   8.25  .0742    0.000   213    5    100.0   10 
 3/18/19 12:00p   71.0   71.0   70.3    22   30.2   8.0   ESE   1.33  13.0   SSE   70.5   67.0   66.5   78.6  29.966  0.00  0.00   690     9.89    698     0.0  0.00   0.0   0.000   0.042   70.1    43   46.6   67.7   8.25  .0742    0.020   213    5    100.0   10 
 3/18/19 12:10p   71.7   71.7   71.0    21   29.7   8.0   ESE   1.33  15.0    SE   71.2   67.8   67.3   79.4  29.965  0.00  0.00   703    10.08    708     0.0  0.00   0.0   0.000   0.047   70.3    43   46.7   68.0   8.24  .0742    0.000   214    5    100.0   10 
 3/18/19 12:20p   72.4   72.4   71.7    21   30.2   5.0   ESE   0.83  12.0   SSE   72.4   68.8   68.8   81.8  29.965  0.00  0.00   715    10.25    721     0.0  0.00   0.0   0.000   0.051   70.3    43   46.7   68.0   8.24  .0742    0.000   213    5    100.0   10 
 3/18/19 12:30p   72.9   72.9   72.4    21   30.6   5.0   SSE   0.83  17.0   ENE   72.9   69.6   69.6   82.7  29.964  0.00  0.00   726    10.41    731     0.0  0.00   0.0   0.000   0.055   70.5    42   46.3   68.1   8.04  .0742    0.000   213    5    100.0   10 
 3/18/19 12:40p   74.0   74.0   72.9    20   30.4   5.0   ESE   0.83  18.0     E   74.0   71.0   71.0   84.3  29.960  0.00  0.00   736    10.55    742     0.0  0.00   0.0   0.000   0.063   70.5    41   45.7   68.1   7.93  .0742    0.000   214    5    100.0   10 
 3/18/19 12:50p   74.6   74.6   74.0    20   30.9   5.0   ESE   0.83  12.0     E   74.6   71.9   71.9   85.3  29.950  0.00  0.00   744    10.67    747     0.0  0.00   0.0   0.000   0.067   70.7    40   45.2   68.2   7.74  .0741    0.000   213    5    100.0   10 
 3/18/19  1:00p   75.4   75.4   74.7    20   31.5   4.0   ESE   0.67  11.0   SSE   75.4   73.1   73.1   86.6  29.951  0.00  0.00   749    10.74    752     0.0  0.00   0.0   0.000   0.072   70.8    40   45.3   68.3   7.73  .0741    0.022   212    5    100.0   10 
 3/18/19  1:10p   76.1   76.1   75.4    20   32.1   6.0   ESE   1.00  13.0   SSE   76.1   74.2   74.2   87.8  29.950  0.00  0.00   753    10.79    756     0.0  0.00   0.0   0.000   0.077   70.9    39   44.7   68.4   7.63  .0741    0.000   213    5    100.0   10 
 3/18/19  1:20p   76.7   76.7   76.1    19   31.3   6.0   ESE   1.00  14.0     E   76.7   75.0   75.0   88.7  29.945  0.00  0.00   755    10.82    758     0.0  0.00   0.0   0.000   0.081   71.0    39   44.8   68.5   7.63  .0741    0.000   213    5    100.0   10 
 3/18/19  1:30p   77.0   77.0   76.6    19   31.6   6.0     E   1.00  13.0   ESE   77.0   75.4   75.4   89.3  29.941  0.00  0.00   758    10.87    759     0.0  0.00   0.0   0.000   0.083   71.2    39   45.0   68.8   7.63  .0741    0.000   212    5    100.0   10 
 3/18/19  1:40p   77.4   77.4   77.1    20   33.2   6.0     E   1.00  13.0   ENE   77.4   75.7   75.7   89.8  29.933  0.00  0.00   759    10.88    761     0.0  0.00   0.0   0.000   0.086   71.3    39   45.1   69.0   7.62  .0740    0.000   214    5    100.0   10 
 3/18/19  1:50p   77.6   77.7   77.5    19   32.1   5.0     E   0.83  14.0   SSE   77.6   75.7   75.7   89.9  29.934  0.00  0.00   757    10.85    759     0.0  0.00   0.0   0.000   0.087   71.4    38   44.5   69.0   7.49  .0740    0.000   212    5    100.0   10 
 3/18/19  2:00p   77.6   77.7   77.5    19   32.1   5.0    SE   0.83  11.0   ESE   77.6   75.7   75.7   90.0  29.926  0.00  0.00   753    10.79    756     0.0  0.00   0.0   0.000   0.087   71.6    37   43.9   69.2   7.32  .0740    0.023   212    5    100.0   10 
 3/18/19  2:10p   77.8   77.8   77.6    19   32.2   7.0   ESE   1.17  15.0     E   77.8   75.7   75.7   89.9  29.922  0.00  0.00   749    10.74    751     0.0  0.00   0.0   0.000   0.089   71.8    37   44.1   69.5   7.31  .0739    0.000   213    5    100.0   10 
 3/18/19  2:20p   77.8   77.9   77.7    19   32.2   6.0   ESE   1.00  14.0     E   77.8   75.7   75.7   90.3  29.918  0.00  0.00   741    10.62    745     0.0  0.00   0.0   0.000   0.089   71.9    37   44.2   69.7   7.31  .0739    0.000   213    5    100.0   10 
 3/18/19  2:30p   78.0   78.1   77.8    19   32.4   4.0     E   0.67  14.0   SSE   78.0   75.8   75.8   90.5  29.919  0.00  0.00   729    10.45    733     0.0  0.00   0.0   0.000   0.090   72.1    37   44.4   70.0   7.31  .0739    0.000   213    5    100.0   10 
 3/18/19  2:40p   78.1   78.3   77.7    19   32.5   4.0     S   0.67  14.0   ESE   78.1   75.8   75.8   90.6  29.917  0.00  0.00   718    10.29    722     0.0  0.00   0.0   0.000   0.091   72.3    37   44.6   70.3   7.30  .0739    0.000   213    5    100.0   10 
 3/18/19  2:50p   78.9   78.9   78.0    19   33.1   4.0   ESE   0.67  12.0   ESE   78.9   76.0   76.0   91.0  29.918  0.00  0.00   707    10.13    712     0.0  0.00   0.0   0.000   0.097   72.5    36   44.0   70.5   7.15  .0738    0.000   213    5    100.0   10 
 3/18/19  3:00p   79.7   79.7   79.0    19   33.8   5.0     E   0.83  12.0     E   79.7   76.6   76.6   91.8  29.912  0.00  0.00   692     9.92    698     0.0  0.00   0.0   0.000   0.102   72.7    36   44.2   70.8   7.14  .0738    0.022   210    5    100.0   10 
 3/18/19  3:10p   80.0   80.1   79.7    19   34.0   4.0    SE   0.67  12.0    SE   80.0   76.9   76.9   92.3  29.911  0.00  0.00   678     9.72    686     0.0  0.00   0.0   0.000   0.104   72.9    35   43.6   71.0   6.99  .0738    0.000   213    5    100.0   10 
 3/18/19  3:20p   80.2   80.2   80.0    19   34.2   4.0    SE   0.67  11.0   NNE   80.2   77.1   77.1   92.6  29.912  0.00  0.00   661     9.48    668     0.0  0.00   0.0   0.000   0.106   73.2    35   43.9   71.5   6.99  .0737    0.000   212    5    100.0   10 
 3/18/19  3:30p   80.5   80.7   80.3    18   33.1   5.0   ESE   0.83  12.0    SE   80.5   77.3   77.3   92.9  29.913  0.00  0.00   643     9.22    652     0.0  0.00   0.0   0.000   0.108   73.5    34   43.4   71.9   6.78  .0737    0.000   213    5    100.0   10 
 3/18/19  3:40p   80.1   80.5   80.1    18   32.7   4.0     E   0.67  11.0    SE   80.1   76.9   76.9   92.5  29.911  0.00  0.00   623     8.93    631     0.0  0.00   0.0   0.000   0.105   73.8    35   44.4   72.4   6.97  .0736    0.000   212    5    100.0   10 
 3/18/19  3:50p   74.5   80.8   74.5    21   32.0   4.0   SSW   0.67  10.0   SSW   74.5   71.9   71.9   87.6  29.910  0.00  0.00   603     8.64    612     0.0  0.00   0.0   0.000   0.066   74.0    35   44.6   72.7   6.97  .0736    0.000   213    5    100.0   10 
 3/18/19  4:00p   66.7   74.2   66.7    35   38.2   5.0   SSW   0.83  11.0     S   66.7   63.6   63.6   79.5  29.912  0.00  0.00   579     8.30    592     0.0  0.00   0.0   0.000   0.012   74.1    36   45.4   72.9   7.09  .0736    0.019   212    5    100.0   10 
 3/18/19  4:10p   66.4   66.8   66.3    37   39.3   2.0     S   0.33   6.0    SW   66.4   63.5   63.5   79.5  29.915  0.00  0.00   557     7.98    564     0.0  0.00   0.0   0.000   0.010   74.2    37   46.2   73.1   7.27  .0735    0.000   212    5    100.0   10 
 3/18/19  4:20p   66.4   67.0   66.3    36   38.6   2.0   SSW   0.33   5.0   SSW   66.4   63.4   63.4   79.4  29.916  0.00  0.00   534     7.65    545     0.0  0.00   0.0   0.000   0.010   74.2    37   46.2   73.1   7.27  .0735    0.000   211    5    100.0   10 
 3/18/19  4:30p   66.3   66.7   66.3    37   39.2   3.0     S   0.50   7.0   SSW   66.3   63.4   63.4   79.3  29.914  0.00  0.00   508     7.28    520     0.0  0.00   0.0   0.000   0.009   74.3    38   47.0   73.3   7.38  .0735    0.000   210    5    100.0   10 
Email: AdamSPAM@StormwatchersRetreat.com (To send me email remove the word 'SPAM' from my email address.)